Time;durP1;ratioP1;P1;durP2;ratioP2;P2;SDS_P1;SDS_P2;PMS_P1;PMS_P2;Temp;Humidity;BMP_temperature;BMP_pressure;BME280_temperature;BME280_humidity;BME280_pressure;Samples;Min_cycle;Max_cycle;Signal;HPM_P1;HPM_P2
2022/08/17 00:00:18;;;;;;;61.15;54.20;;;;;;;;;;4879878;29;20024;-78
2022/08/17 00:03:07;;;;;;;61.67;54.67;;;;;;;;;;4914852;29;20035;-78
2022/08/17 00:05:35;;;;;;;63.00;56.17;;;;;;;;;;4886628;29;20028;-78
2022/08/17 00:08:00;;;;;;;69.20;59.70;;;;;;;;;;4901146;29;20020;-79
2022/08/17 00:10:26;;;;;;;67.35;60.08;;;;;;;;;;4917043;29;20035;-79
2022/08/17 00:12:51;;;;;;;74.25;62.70;;;;;;;;;;4887034;29;20353;-79
2022/08/17 00:15:18;;;;;;;74.95;62.60;;;;;;;;;;4882471;29;20031;-79
2022/08/17 00:17:46;;;;;;;68.55;60.25;;;;;;;;;;4866562;29;20407;-79
2022/08/17 00:20:12;;;;;;;66.00;56.05;;;;;;;;;;4876515;29;20207;-82
2022/08/17 00:22:37;;;;;;;62.47;55.67;;;;;;;;;;4875463;29;20150;-82
2022/08/17 00:25:06;;;;;;;74.85;63.20;;;;;;;;;;4921228;29;20071;-81
2022/08/17 00:27:32;;;;;;;67.25;59.88;;;;;;;;;;4861442;29;20032;-82
2022/08/17 00:29:57;;;;;;;71.07;59.55;;;;;;;;;;4861610;29;20119;-82
2022/08/17 00:32:23;;;;;;;68.75;59.72;;;;;;;;;;4862041;29;20032;-82
2022/08/17 00:34:48;;;;;;;70.43;60.45;;;;;;;;;;4858866;29;20122;-82
2022/08/17 00:37:16;;;;;;;69.43;60.85;;;;;;;;;;4907698;29;20038;-82
2022/08/17 00:39:42;;;;;;;69.93;60.00;;;;;;;;;;4875369;29;20032;-82
2022/08/17 00:42:13;;;;;;;70.30;59.60;;;;;;;;;;4867891;29;20527;-82
2022/08/17 00:44:38;;;;;;;73.50;61.75;;;;;;;;;;4879077;29;20514;-82
2022/08/17 00:47:04;;;;;;;79.72;65.22;;;;;;;;;;4895081;29;20035;-82
2022/08/17 00:49:30;;;;;;;83.72;65.30;;;;;;;;;;4894627;29;20480;-81
2022/08/17 00:51:58;;;;;;;92.25;71.65;;;;;;;;;;4892548;29;20373;-81
2022/08/17 00:54:27;;;;;;;98.05;76.15;;;;;;;;;;4907278;29;20114;-81
2022/08/17 00:56:55;;;;;;;101.53;78.68;;;;;;;;;;4890524;29;20043;-81
2022/08/17 00:59:22;;;;;;;99.55;77.75;;;;;;;;;;4907487;29;20042;-81
2022/08/17 01:01:48;;;;;;;105.07;76.75;;;;;;;;;;4910086;29;20179;-83
2022/08/17 01:04:13;;;;;;;98.70;73.95;;;;;;;;;;4872542;29;20030;-82
2022/08/17 01:06:40;;;;;;;102.05;74.40;;;;;;;;;;4879521;29;20114;-82
2022/08/17 01:09:05;;;;;;;101.47;76.28;;;;;;;;;;4910139;29;20046;-82
2022/08/17 01:11:31;;;;;;;103.10;78.68;;;;;;;;;;4858396;29;20043;-82
2022/08/17 01:13:57;;;;;;;109.60;82.50;;;;;;;;;;4908464;29;20071;-82
2022/08/17 01:16:27;;;;;;;132.15;91.18;;;;;;;;;;4892954;29;20496;-81
2022/08/17 01:18:54;;;;;;;132.32;91.15;;;;;;;;;;4892018;29;20557;-81
2022/08/17 01:21:35;;;;;;;142.07;98.63;;;;;;;;;;4896846;29;20023;-82
2022/08/17 01:24:00;;;;;;;134.88;96.45;;;;;;;;;;4896681;29;20028;-81
2022/08/17 01:26:25;;;;;;;126.50;92.30;;;;;;;;;;4929405;29;20028;-81
2022/08/17 01:28:51;;;;;;;130.85;91.78;;;;;;;;;;4897095;29;20067;-82
2022/08/17 01:31:16;;;;;;;132.65;91.47;;;;;;;;;;4866170;29;20098;-82
2022/08/17 01:33:42;;;;;;;129.63;93.40;;;;;;;;;;4897640;29;20143;-81
2022/08/17 01:36:07;;;;;;;141.82;96.07;;;;;;;;;;4912134;29;20062;-82
2022/08/17 01:38:34;;;;;;;137.45;95.65;;;;;;;;;;4919786;29;20431;-82
2022/08/17 01:41:02;;;;;;;157.77;106.95;;;;;;;;;;4943853;29;20027;-81
2022/08/17 01:43:30;;;;;;;164.60;108.13;;;;;;;;;;4895023;29;20315;-81
2022/08/17 01:45:58;;;;;;;168.23;111.65;;;;;;;;;;4912339;29;20039;-81
2022/08/17 01:48:29;;;;;;;163.18;108.18;;;;;;;;;;4929417;29;20106;-82
2022/08/17 01:50:54;;;;;;;156.73;107.65;;;;;;;;;;4896697;29;20043;-81
2022/08/17 01:53:26;;;;;;;149.27;103.22;;;;;;;;;;4942429;28;20559;-84
2022/08/17 01:55:57;;;;;;;156.20;103.68;;;;;;;;;;4911341;29;20032;-81
2022/08/17 01:58:22;;;;;;;153.30;105.30;;;;;;;;;;4927718;29;20033;-82
2022/08/17 02:00:50;;;;;;;163.18;108.82;;;;;;;;;;4912312;29;20534;-81
2022/08/17 02:03:17;;;;;;;165.50;111.05;;;;;;;;;;4898448;29;20039;-82
2022/08/17 02:05:43;;;;;;;169.90;110.32;;;;;;;;;;4894403;29;20063;-81
2022/08/17 02:08:08;;;;;;;167.52;106.55;;;;;;;;;;4897730;29;20376;-81
2022/08/17 02:10:34;;;;;;;166.50;107.93;;;;;;;;;;4912744;29;20027;-82
2022/08/17 02:13:00;;;;;;;177.10;112.15;;;;;;;;;;4897450;29;20039;-82
2022/08/17 02:15:25;;;;;;;189.50;116.88;;;;;;;;;;4926793;29;20031;-82
2022/08/17 02:17:51;;;;;;;186.00;116.57;;;;;;;;;;4912105;29;20031;-82
2022/08/17 02:20:16;;;;;;;189.80;120.32;;;;;;;;;;4897081;29;20454;-82
2022/08/17 02:22:42;;;;;;;199.13;120.35;;;;;;;;;;4883724;29;20035;-82
2022/08/17 02:25:09;;;;;;;193.68;116.88;;;;;;;;;;4897129;29;20118;-82
2022/08/17 02:27:35;;;;;;;193.50;116.75;;;;;;;;;;4898500;29;20035;-82
2022/08/17 02:30:04;;;;;;;189.90;116.90;;;;;;;;;;4895673;29;20448;-82
2022/08/17 02:32:29;;;;;;;208.30;122.47;;;;;;;;;;4909511;29;20421;-82
2022/08/17 02:34:56;;;;;;;193.98;121.43;;;;;;;;;;4895464;29;20054;-82
2022/08/17 02:37:21;;;;;;;180.38;113.07;;;;;;;;;;4897075;29;20031;-82
2022/08/17 02:39:46;;;;;;;197.43;120.07;;;;;;;;;;4897665;29;20083;-83
2022/08/17 02:42:12;;;;;;;175.98;111.45;;;;;;;;;;4910842;29;20056;-83
2022/08/17 02:44:39;;;;;;;199.20;119.20;;;;;;;;;;4897527;29;20063;-82
2022/08/17 02:47:04;;;;;;;196.43;116.88;;;;;;;;;;4881627;29;20491;-82
2022/08/17 02:49:29;;;;;;;204.25;123.50;;;;;;;;;;4923996;29;20478;-82
2022/08/17 02:51:56;;;;;;;215.75;124.68;;;;;;;;;;4925410;29;20058;-82
2022/08/17 02:54:21;;;;;;;219.07;124.32;;;;;;;;;;4897121;29;20478;-82
2022/08/17 02:56:47;;;;;;;230.07;127.15;;;;;;;;;;4912377;29;20114;-82
2022/08/17 02:59:12;;;;;;;224.48;124.97;;;;;;;;;;4897895;29;20032;-83
2022/08/17 03:01:37;;;;;;;217.02;122.43;;;;;;;;;;4909202;29;20491;-83
2022/08/17 03:04:03;;;;;;;202.20;122.85;;;;;;;;;;4909465;29;20024;-83
2022/08/17 03:06:30;;;;;;;217.90;126.40;;;;;;;;;;4880701;29;20036;-83
2022/08/17 03:08:55;;;;;;;218.43;126.40;;;;;;;;;;4897195;29;20543;-83
2022/08/17 03:11:21;;;;;;;208.88;122.38;;;;;;;;;;4894231;29;20110;-82
2022/08/17 03:13:46;;;;;;;210.10;124.43;;;;;;;;;;4911361;29;20039;-83
2022/08/17 03:16:12;;;;;;;212.93;124.85;;;;;;;;;;4908323;29;20122;-82
2022/08/17 03:18:37;;;;;;;217.82;124.47;;;;;;;;;;4911814;29;20035;-83
2022/08/17 03:21:03;;;;;;;193.00;120.57;;;;;;;;;;4895409;29;21319;-84
2022/08/17 03:23:28;;;;;;;209.05;123.63;;;;;;;;;;4896059;29;20544;-83
2022/08/17 03:25:54;;;;;;;187.07;117.07;;;;;;;;;;4879773;29;20169;-83
2022/08/17 03:28:20;;;;;;;199.23;119.88;;;;;;;;;;4925664;29;20531;-82
2022/08/17 03:30:45;;;;;;;212.93;122.65;;;;;;;;;;4906725;29;20031;-83
2022/08/17 03:33:11;;;;;;;195.52;117.30;;;;;;;;;;4943129;29;20030;-84
2022/08/17 03:35:39;;;;;;;176.50;112.43;;;;;;;;;;4896763;29;20131;-84
2022/08/17 03:38:04;;;;;;;172.75;111.10;;;;;;;;;;4910564;29;20462;-84
2022/08/17 03:40:30;;;;;;;173.77;110.75;;;;;;;;;;4895915;29;20151;-84
2022/08/17 03:42:56;;;;;;;171.77;111.88;;;;;;;;;;4911103;29;20075;-83
2022/08/17 03:56:42;;;;;;;161.63;106.95;;;;;;;;;;4911435;29;20196;-82
2022/08/17 03:59:15;;;;;;;152.07;104.15;;;;;;;;;;4909603;29;20539;-82
2022/08/17 04:01:44;;;;;;;171.10;109.10;;;;;;;;;;4911183;29;20388;-82
2022/08/17 04:04:10;;;;;;;166.82;104.53;;;;;;;;;;4895321;29;20031;-82
2022/08/17 04:06:35;;;;;;;173.55;107.18;;;;;;;;;;4911417;29;20078;-82
2022/08/17 04:09:01;;;;;;;180.40;111.05;;;;;;;;;;4910306;29;20027;-83
2022/08/17 04:11:26;;;;;;;180.93;108.38;;;;;;;;;;4912102;29;20050;-83
2022/08/17 04:13:52;;;;;;;164.32;106.82;;;;;;;;;;4910606;29;20027;-82
2022/08/17 04:16:17;;;;;;;171.05;110.03;;;;;;;;;;4908867;29;20030;-82
2022/08/17 04:18:42;;;;;;;153.23;105.53;;;;;;;;;;4927300;29;20050;-82
2022/08/17 04:21:08;;;;;;;162.05;103.57;;;;;;;;;;4894703;29;20045;-82
2022/08/17 04:23:35;;;;;;;173.73;108.90;;;;;;;;;;4894485;29;20038;-82
2022/08/17 04:26:00;;;;;;;156.93;105.05;;;;;;;;;;4910940;29;20027;-83
2022/08/17 04:28:26;;;;;;;157.05;103.93;;;;;;;;;;4861834;29;20087;-83
2022/08/17 04:30:51;;;;;;;157.05;101.50;;;;;;;;;;4893609;29;20035;-82
2022/08/17 04:33:21;;;;;;;157.85;101.40;;;;;;;;;;4894945;29;20625;-82
2022/08/17 04:35:48;;;;;;;157.98;101.90;;;;;;;;;;4895456;29;20063;-82
2022/08/17 04:38:16;;;;;;;144.70;97.05;;;;;;;;;;4910405;29;20043;-82
2022/08/17 04:43:26;;;;;;;141.27;93.13;;;;;;;;;;4899216;29;20043;-82
2022/08/17 04:45:53;;;;;;;130.68;92.63;;;;;;;;;;4893846;29;20043;-82
2022/08/17 04:48:19;;;;;;;135.80;92.43;;;;;;;;;;4893739;29;20040;-82
2022/08/17 04:50:48;;;;;;;122.32;88.45;;;;;;;;;;4910747;29;20079;-82
2022/08/17 04:53:14;;;;;;;122.95;87.93;;;;;;;;;;4909928;29;20110;-82
2022/08/17 04:55:39;;;;;;;120.45;85.18;;;;;;;;;;4927849;29;20176;-83
2022/08/17 04:58:05;;;;;;;114.07;86.47;;;;;;;;;;4899177;29;20349;-81
2022/08/17 05:00:30;;;;;;;122.53;85.15;;;;;;;;;;4913729;29;20033;-82
2022/08/17 05:02:56;;;;;;;113.88;83.50;;;;;;;;;;4898010;29;20038;-82
2022/08/17 05:05:25;;;;;;;104.45;78.90;;;;;;;;;;4941425;29;20494;-82
2022/08/17 05:07:53;;;;;;;92.57;73.38;;;;;;;;;;4891852;29;20387;-82
2022/08/17 05:10:19;;;;;;;88.47;72.63;;;;;;;;;;4913508;29;20027;-83
2022/08/17 05:12:44;;;;;;;96.10;74.65;;;;;;;;;;4915509;29;20032;-82
2022/08/17 05:15:14;;;;;;;85.70;69.22;;;;;;;;;;4915943;29;20103;-83
2022/08/17 05:17:40;;;;;;;83.45;67.60;;;;;;;;;;4929316;29;20533;-82
2022/08/17 05:20:06;;;;;;;81.90;65.95;;;;;;;;;;4914246;29;20031;-83
2022/08/17 05:22:31;;;;;;;75.70;62.55;;;;;;;;;;4897852;29;20036;-83
2022/08/17 05:24:56;;;;;;;69.35;61.65;;;;;;;;;;4945566;29;20040;-83
2022/08/17 05:27:22;;;;;;;67.78;60.35;;;;;;;;;;4882076;29;20079;-82
2022/08/17 05:29:47;;;;;;;69.35;58.47;;;;;;;;;;4911152;29;20110;-83
2022/08/17 05:32:12;;;;;;;62.33;55.72;;;;;;;;;;4914077;29;20257;-82
2022/08/17 05:34:38;;;;;;;64.78;56.33;;;;;;;;;;4883708;29;20030;-83
2022/08/17 05:37:03;;;;;;;62.67;55.83;;;;;;;;;;4929853;29;20038;-83
2022/08/17 05:39:29;;;;;;;62.67;55.38;;;;;;;;;;4897484;29;20364;-83
2022/08/17 05:41:54;;;;;;;61.88;55.33;;;;;;;;;;4910806;29;20373;-82
2022/08/17 05:44:19;;;;;;;57.95;51.75;;;;;;;;;;4912466;29;20075;-83
2022/08/17 05:46:49;;;;;;;59.00;52.08;;;;;;;;;;4944922;29;20118;-83
2022/08/17 05:49:15;;;;;;;60.53;53.03;;;;;;;;;;4913362;29;20028;-83
2022/08/17 05:52:28;;;;;;;61.20;51.85;;;;;;;;;;4907891;29;20058;-83
2022/08/17 05:55:03;;;;;;;55.72;49.70;;;;;;;;;;4929609;29;20507;-83
2022/08/17 05:57:42;;;;;;;54.53;48.90;;;;;;;;;;4935874;29;20468;-84
2022/08/17 06:00:27;;;;;;;58.08;51.80;;;;;;;;;;4914223;29;20510;-83
2022/08/17 06:03:32;;;;;;;54.80;49.00;;;;;;;;;;4946890;28;20031;-83
2022/08/17 06:06:19;;;;;;;54.17;48.58;;;;;;;;;;4910173;29;20040;-83
2022/08/17 06:08:52;;;;;;;47.97;43.03;;;;;;;;;;4898126;29;20045;-84
2022/08/17 06:11:26;;;;;;;46.92;41.88;;;;;;;;;;4924896;29;20091;-82
2022/08/17 06:14:12;;;;;;;48.28;43.33;;;;;;;;;;4928917;29;20028;-82
2022/08/17 06:16:40;;;;;;;46.22;41.53;;;;;;;;;;4943377;28;20106;-85
2022/08/17 06:19:27;;;;;;;49.25;44.10;;;;;;;;;;4911581;29;20034;-83
2022/08/17 06:21:52;;;;;;;50.67;44.05;;;;;;;;;;4914974;29;20032;-85
2022/08/17 06:24:23;;;;;;;50.85;44.55;;;;;;;;;;4901394;29;20130;-84
2022/08/17 06:26:48;;;;;;;47.78;42.85;;;;;;;;;;4916971;29;20057;-84
2022/08/17 06:29:35;;;;;;;48.85;43.40;;;;;;;;;;4933249;29;20082;-83
2022/08/17 06:32:02;;;;;;;47.67;42.30;;;;;;;;;;4930105;29;20031;-84
2022/08/17 06:34:28;;;;;;;50.33;43.60;;;;;;;;;;4890250;29;20036;-84
2022/08/17 06:37:12;;;;;;;50.00;44.47;;;;;;;;;;4911087;29;20378;-84
2022/08/17 06:39:46;;;;;;;;;;;;;;;;;;4927578;29;20027;-84
2022/08/17 06:42:47;;;;;;;51.80;45.30;;;;;;;;;;4927488;29;19966;-83
2022/08/17 06:45:18;;;;;;;48.58;43.72;;;;;;;;;;4909191;29;20051;-83
2022/08/17 06:47:58;;;;;;;49.88;44.78;;;;;;;;;;4882469;29;20046;-83
2022/08/17 06:50:34;;;;;;;49.53;44.00;;;;;;;;;;4882294;29;20042;-84
2022/08/17 06:53:19;;;;;;;48.92;43.80;;;;;;;;;;4933116;29;20031;-84
2022/08/17 06:55:59;;;;;;;47.97;42.55;;;;;;;;;;4928732;29;20071;-83
2022/08/17 06:58:26;;;;;;;50.70;45.42;;;;;;;;;;4898245;29;20139;-83
2022/08/17 07:00:52;;;;;;;48.22;43.20;;;;;;;;;;4911784;29;20020;-84
2022/08/17 07:03:54;;;;;;;48.53;43.55;;;;;;;;;;4895807;29;20039;-81
2022/08/17 07:06:22;;;;;;;45.13;40.25;;;;;;;;;;4929273;29;20031;-84
2022/08/17 07:08:59;;;;;;;42.97;38.28;;;;;;;;;;4926054;29;20063;-84
2022/08/17 07:11:33;;;;;;;43.90;39.25;;;;;;;;;;4912255;29;20106;-84
2022/08/17 07:14:13;;;;;;;40.72;36.70;;;;;;;;;;4928997;29;20055;-84
2022/08/17 07:16:47;;;;;;;40.13;36.17;;;;;;;;;;4931387;29;20061;-84
2022/08/17 07:19:15;;;;;;;39.85;35.63;;;;;;;;;;4940203;29;20024;-84
2022/08/17 07:21:43;;;;;;;39.75;35.95;;;;;;;;;;4911732;29;20024;-83
2022/08/17 07:24:30;;;;;;;41.95;37.65;;;;;;;;;;4943636;29;20032;-83
2022/08/17 07:27:09;;;;;;;37.55;33.67;;;;;;;;;;4910528;29;20082;-84
2022/08/17 07:29:45;;;;;;;37.10;33.22;;;;;;;;;;4880626;29;20404;-84
2022/08/17 07:32:11;;;;;;;36.70;32.88;;;;;;;;;;4911253;29;20122;-83
2022/08/17 07:35:13;;;;;;;36.83;33.15;;;;;;;;;;4896492;29;20151;-84
2022/08/17 07:37:41;;;;;;;35.45;32.03;;;;;;;;;;4892923;29;20107;-83
2022/08/17 07:40:29;;;;;;;36.45;32.85;;;;;;;;;;4946719;29;20507;-83
2022/08/17 07:43:14;;;;;;;33.70;30.17;;;;;;;;;;4929385;29;20178;-84
2022/08/17 07:49:14;;;;;;;34.00;29.35;;;;;;;;;;4930591;29;20050;-83
2022/08/17 07:51:42;;;;;;;33.88;30.38;;;;;;;;;;4913414;29;20048;-83
2022/08/17 07:54:14;;;;;;;33.85;30.17;;;;;;;;;;4912328;29;20023;-83
2022/08/17 07:56:49;;;;;;;33.08;28.38;;;;;;;;;;4926839;29;20034;-83
2022/08/17 07:59:23;;;;;;;29.30;26.38;;;;;;;;;;4915553;29;20058;-83
2022/08/17 08:01:59;;;;;;;31.90;28.65;;;;;;;;;;4915335;29;20399;-83
2022/08/17 08:04:31;;;;;;;31.60;28.30;;;;;;;;;;4932057;29;20043;-84
2022/08/17 08:06:58;;;;;;;28.20;25.30;;;;;;;;;;4947234;29;20123;-84
2022/08/17 08:09:42;;;;;;;31.13;28.23;;;;;;;;;;4914819;29;20019;-83
2022/08/17 08:12:23;;;;;;;29.92;26.98;;;;;;;;;;4898950;29;20040;-83
2022/08/17 08:14:56;;;;;;;31.30;28.00;;;;;;;;;;4912866;29;20039;-83
2022/08/17 08:17:29;;;;;;;31.90;28.83;;;;;;;;;;4914526;29;20047;-83
2022/08/17 08:19:56;;;;;;;35.70;31.05;;;;;;;;;;4877457;29;20024;-83
2022/08/17 08:22:27;;;;;;;32.50;28.23;;;;;;;;;;4897055;29;20354;-83
2022/08/17 08:25:02;;;;;;;31.95;28.65;;;;;;;;;;4899735;29;20063;-83
2022/08/17 08:27:56;;;;;;;31.60;28.35;;;;;;;;;;4920973;29;20102;-83
2022/08/17 08:30:21;;;;;;;32.38;29.02;;;;;;;;;;4909756;29;20050;-83
2022/08/17 08:33:06;;;;;;;33.65;27.52;;;;;;;;;;4887946;29;20495;-83
2022/08/17 08:36:17;;;;;;;31.48;26.30;;;;;;;;;;4929998;29;20039;-82
2022/08/17 08:38:59;;;;;;;28.40;24.58;;;;;;;;;;4936242;29;20104;-83
2022/08/17 08:41:46;;;;;;;29.98;27.05;;;;;;;;;;4881345;29;20068;-83
2022/08/17 08:44:35;;;;;;;29.77;26.95;;;;;;;;;;4896536;29;20043;-83
2022/08/17 08:47:40;;;;;;;29.65;26.75;;;;;;;;;;4902506;29;20025;-83
2022/08/17 08:50:14;;;;;;;30.50;27.63;;;;;;;;;;4913386;29;20102;-83
2022/08/17 08:52:53;;;;;;;31.75;28.58;;;;;;;;;;4923880;29;20071;-82
2022/08/17 08:55:20;;;;;;;32.95;29.52;;;;;;;;;;4915526;29;20027;-82
2022/08/17 08:57:50;;;;;;;30.92;27.20;;;;;;;;;;4933249;29;20057;-83
2022/08/17 09:00:18;;;;;;;32.47;27.65;;;;;;;;;;4916754;29;20091;-82
2022/08/17 09:02:55;;;;;;;35.25;30.23;;;;;;;;;;4896286;29;20025;-84
2022/08/17 09:05:44;;;;;;;37.63;29.30;;;;;;;;;;4893685;29;20047;-82
2022/08/17 09:08:23;;;;;;;32.15;28.50;;;;;;;;;;4944646;28;20062;-83
2022/08/17 09:11:05;;;;;;;34.17;30.52;;;;;;;;;;4930605;29;20131;-83
2022/08/17 09:13:56;;;;;;;32.40;29.00;;;;;;;;;;4898153;29;20063;-83
2022/08/17 09:17:00;;;;;;;34.58;30.95;;;;;;;;;;4916270;29;20028;-83
2022/08/17 09:19:34;;;;;;;36.10;31.70;;;;;;;;;;4930327;29;20384;-83
2022/08/17 09:22:19;;;;;;;39.28;32.63;;;;;;;;;;4913639;29;20059;-83
2022/08/17 09:25:05;;;;;;;36.60;31.50;;;;;;;;;;4907652;29;20052;-83
2022/08/17 09:27:33;;;;;;;36.60;31.00;;;;;;;;;;4904793;29;20451;-82
2022/08/17 09:30:01;;;;;;;38.15;31.95;;;;;;;;;;4883827;29;20028;-83
2022/08/17 09:32:30;;;;;;;38.78;32.38;;;;;;;;;;4929919;29;20028;-83
2022/08/17 09:34:59;;;;;;;34.42;30.88;;;;;;;;;;4913342;29;20079;-83
2022/08/17 09:37:26;;;;;;;33.85;28.70;;;;;;;;;;4898327;29;20039;-83
2022/08/17 09:39:54;;;;;;;32.05;28.77;;;;;;;;;;4914066;29;20035;-83
2022/08/17 09:42:28;;;;;;;33.30;29.83;;;;;;;;;;4913880;29;20122;-83
2022/08/17 09:45:20;;;;;;;34.50;28.52;;;;;;;;;;4901766;29;20204;-83
2022/08/17 09:47:53;;;;;;;34.88;28.77;;;;;;;;;;4901844;29;20043;-83
2022/08/17 09:50:27;;;;;;;30.35;27.35;;;;;;;;;;4917191;29;20032;-84
2022/08/17 09:52:54;;;;;;;31.67;26.85;;;;;;;;;;4917516;29;20094;-84
2022/08/17 09:55:20;;;;;;;28.70;26.02;;;;;;;;;;4916629;29;20107;-83
2022/08/17 09:58:07;;;;;;;26.50;23.67;;;;;;;;;;4927359;29;20500;-83
2022/08/17 10:00:34;;;;;;;29.13;26.02;;;;;;;;;;4900516;29;20554;-83
2022/08/17 10:03:15;;;;;;;30.25;25.45;;;;;;;;;;4933010;29;20063;-82
2022/08/17 10:06:00;;;;;;;27.98;25.33;;;;;;;;;;4934091;29;20039;-83
2022/08/17 10:08:51;;;;;;;25.60;23.15;;;;;;;;;;4901253;29;20501;-83
2022/08/17 10:14:40;;;;;;;26.80;22.75;;;;;;;;;;4945082;29;20039;-82
2022/08/17 10:17:28;;;;;;;25.80;23.23;;;;;;;;;;4911580;29;20031;-83
2022/08/17 10:20:22;;;;;;;26.48;22.70;;;;;;;;;;4913453;29;20420;-83
2022/08/17 10:26:22;;;;;;;25.05;22.60;;;;;;;;;;4917309;29;20063;-83
2022/08/17 10:29:01;;;;;;;26.00;23.52;;;;;;;;;;4921409;29;20035;-83
2022/08/17 10:31:54;;;;;;;26.58;23.98;;;;;;;;;;4916999;29;20028;-84
2022/08/17 10:34:46;;;;;;;25.75;23.27;;;;;;;;;;4903920;29;20032;-83
2022/08/17 10:37:38;;;;;;;24.60;22.27;;;;;;;;;;4897199;29;20455;-84
2022/08/17 10:40:16;;;;;;;24.55;22.02;;;;;;;;;;4930797;29;20392;-84
2022/08/17 10:42:57;;;;;;;25.27;22.58;;;;;;;;;;4920309;29;20358;-82
2022/08/17 10:45:35;;;;;;;25.38;22.67;;;;;;;;;;4882917;29;20032;-83
2022/08/17 10:48:24;;;;;;;25.15;22.52;;;;;;;;;;4905776;29;20496;-83
2022/08/17 10:50:57;;;;;;;26.40;23.90;;;;;;;;;;4896442;29;20035;-82
2022/08/17 10:53:31;;;;;;;;;;;;;;;;;;4911786;29;20032;-83
2022/08/17 10:56:12;;;;;;;28.35;22.20;;;;;;;;;;4894001;29;19942;-84
2022/08/17 10:58:56;;;;;;;23.65;21.08;;;;;;;;;;4913208;29;20091;-84
2022/08/17 11:01:31;;;;;;;23.38;21.10;;;;;;;;;;4912112;29;20082;-83
2022/08/17 11:03:58;;;;;;;23.38;20.98;;;;;;;;;;4896640;29;20044;-84
2022/08/17 11:06:36;;;;;;;23.75;21.35;;;;;;;;;;4894011;29;20531;-83
2022/08/17 11:09:11;;;;;;;24.00;21.40;;;;;;;;;;4916776;29;20875;-83
2022/08/17 11:12:05;;;;;;;22.05;19.95;;;;;;;;;;4897315;29;20024;-82
2022/08/17 11:14:56;;;;;;;23.77;21.25;;;;;;;;;;4891214;29;20034;-82
2022/08/17 11:17:24;;;;;;;25.88;20.08;;;;;;;;;;4890490;29;20086;-83
2022/08/17 11:20:08;;;;;;;23.38;19.77;;;;;;;;;;4906782;29;20043;-82
2022/08/17 11:22:42;;;;;;;23.40;20.90;;;;;;;;;;4879723;29;20031;-82
2022/08/17 11:25:12;;;;;;;26.85;21.67;;;;;;;;;;4929040;29;20044;-82
2022/08/17 11:27:37;;;;;;;24.38;21.98;;;;;;;;;;4928334;29;20024;-83
2022/08/17 11:30:07;;;;;;;25.67;22.10;;;;;;;;;;4894044;29;20170;-83
2022/08/17 11:32:45;;;;;;;26.65;22.38;;;;;;;;;;4928815;29;20039;-83
2022/08/17 11:35:20;;;;;;;26.02;23.23;;;;;;;;;;4928085;29;20056;-83
2022/08/17 11:37:48;;;;;;;26.85;23.25;;;;;;;;;;4914024;29;20032;-83
2022/08/17 11:40:26;;;;;;;26.55;23.30;;;;;;;;;;4927813;29;20043;-83
2022/08/17 11:43:03;;;;;;;26.20;23.52;;;;;;;;;;4926045;28;20052;-83
2022/08/17 11:45:45;;;;;;;26.83;24.13;;;;;;;;;;4909897;29;20130;-83
2022/08/17 11:51:34;;;;;;;23.63;21.33;;;;;;;;;;4888321;29;20035;-83
2022/08/17 11:54:15;;;;;;;26.10;22.98;;;;;;;;;;4885405;29;20024;-83
2022/08/17 11:56:42;;;;;;;27.35;24.35;;;;;;;;;;4895874;29;20032;-83
2022/08/17 11:59:40;;;;;;;29.92;25.17;;;;;;;;;;4912572;29;20031;-83
2022/08/17 12:02:30;;;;;;;25.58;23.00;;;;;;;;;;4918046;29;20051;-84
2022/08/17 12:05:19;;;;;;;27.65;24.73;;;;;;;;;;4914259;29;20058;-83
2022/08/17 12:07:46;;;;;;;27.77;24.92;;;;;;;;;;4897256;29;20127;-84
2022/08/17 12:10:12;;;;;;;28.27;25.30;;;;;;;;;;4896408;29;20036;-84
2022/08/17 12:12:39;;;;;;;25.13;22.52;;;;;;;;;;4894962;29;20047;-84
2022/08/17 12:15:06;;;;;;;29.90;23.95;;;;;;;;;;4893247;29;20024;-84
2022/08/17 12:17:32;;;;;;;26.58;23.15;;;;;;;;;;4864884;29;20461;-84
2022/08/17 12:20:17;;;;;;;24.65;20.70;;;;;;;;;;4897310;29;20074;-84
2022/08/17 12:22:53;;;;;;;27.42;24.70;;;;;;;;;;4912303;29;20036;-83
2022/08/17 12:25:46;;;;;;;27.00;24.00;;;;;;;;;;4896494;29;20460;-84
2022/08/17 12:28:24;;;;;;;27.80;25.10;;;;;;;;;;4875905;29;20396;-84
2022/08/17 12:30:50;;;;;;;28.63;24.65;;;;;;;;;;4878936;29;20114;-85
2022/08/17 12:33:15;;;;;;;29.38;26.30;;;;;;;;;;4860784;29;20043;-83
2022/08/17 12:35:42;;;;;;;28.67;25.75;;;;;;;;;;4861748;29;20148;-84
2022/08/17 12:38:08;;;;;;;32.30;28.70;;;;;;;;;;4876756;29;20789;-84
2022/08/17 12:40:34;;;;;;;29.98;26.88;;;;;;;;;;4906564;29;20369;-84
2022/08/17 12:43:00;;;;;;;32.50;28.95;;;;;;;;;;4875665;29;20072;-84
2022/08/17 12:45:34;;;;;;;32.72;28.42;;;;;;;;;;4905016;29;20377;-84
2022/08/17 12:48:01;;;;;;;30.77;27.75;;;;;;;;;;4910646;29;20024;-84
2022/08/17 12:50:27;;;;;;;31.60;27.20;;;;;;;;;;4903393;29;20035;-84
2022/08/17 12:52:54;;;;;;;33.22;29.80;;;;;;;;;;4875030;29;20087;-84
2022/08/17 12:55:21;;;;;;;30.80;27.85;;;;;;;;;;4923840;29;20080;-84
2022/08/17 12:57:52;;;;;;;34.90;31.20;;;;;;;;;;4896671;29;20111;-84
2022/08/17 13:00:19;;;;;;;36.83;32.95;;;;;;;;;;4933949;29;20031;-83
2022/08/17 13:02:47;;;;;;;36.88;32.78;;;;;;;;;;4935153;29;20420;-83
2022/08/17 13:05:21;;;;;;;40.03;35.60;;;;;;;;;;4898043;29;20031;-83
2022/08/17 13:07:47;;;;;;;38.08;34.22;;;;;;;;;;4895436;29;20027;-83
2022/08/17 13:10:24;;;;;;;40.00;35.03;;;;;;;;;;4894170;29;20031;-83
2022/08/17 13:12:51;;;;;;;41.67;36.63;;;;;;;;;;4894849;29;20067;-83
2022/08/17 13:15:19;;;;;;;36.53;32.72;;;;;;;;;;4892635;29;20083;-83
2022/08/17 13:17:45;;;;;;;41.88;37.53;;;;;;;;;;4878540;29;20051;-84
2022/08/17 13:20:13;;;;;;;48.35;40.22;;;;;;;;;;4891904;29;20461;-84
2022/08/17 13:22:38;;;;;;;44.05;38.90;;;;;;;;;;4864940;29;20401;-84
2022/08/17 13:25:06;;;;;;;48.05;42.85;;;;;;;;;;4877354;29;20051;-84
2022/08/17 13:27:31;;;;;;;47.50;40.22;;;;;;;;;;4914136;29;20364;-83
2022/08/17 13:30:01;;;;;;;49.15;43.83;;;;;;;;;;4879789;29;20060;-82
2022/08/17 13:32:29;;;;;;;54.90;46.85;;;;;;;;;;4911979;29;20036;-82
2022/08/17 13:34:56;;;;;;;51.70;45.78;;;;;;;;;;4879638;29;20385;-83
2022/08/17 13:37:33;;;;;;;50.53;44.67;;;;;;;;;;4911158;29;20399;-84
2022/08/17 13:40:07;;;;;;;63.38;52.28;;;;;;;;;;4895056;29;20043;-84
2022/08/17 13:42:39;;;;;;;64.30;51.75;;;;;;;;;;4914425;29;20048;-83
2022/08/17 13:45:29;;;;;;;67.47;54.90;;;;;;;;;;4931530;29;20492;-85
2022/08/17 13:48:17;;;;;;;62.88;50.42;;;;;;;;;;4905017;29;20122;-85
2022/08/17 13:51:04;;;;;;;63.85;54.63;;;;;;;;;;4883486;29;20246;-85
2022/08/17 13:53:36;;;;;;;61.38;51.67;;;;;;;;;;4899399;29;20091;-84
2022/08/17 13:56:03;;;;;;;65.15;56.03;;;;;;;;;;4915226;29;20044;-84
2022/08/17 13:58:39;;;;;;;70.93;57.30;;;;;;;;;;4894455;29;20530;-84
2022/08/17 14:01:34;;;;;;;64.43;55.90;;;;;;;;;;4862165;29;20528;-84
2022/08/17 14:04:02;;;;;;;72.55;60.58;;;;;;;;;;4904496;29;20035;-84
2022/08/17 14:06:31;;;;;;;85.13;64.05;;;;;;;;;;4858448;29;20043;-84
2022/08/17 14:08:56;;;;;;;75.15;63.05;;;;;;;;;;4892884;29;20481;-83
2022/08/17 14:11:22;;;;;;;78.47;63.92;;;;;;;;;;4912506;29;20206;-83
2022/08/17 14:13:48;;;;;;;74.70;61.35;;;;;;;;;;4913852;29;20042;-84
2022/08/17 14:16:13;;;;;;;76.80;62.40;;;;;;;;;;4864017;29;20112;-83
2022/08/17 14:18:38;;;;;;;80.03;63.50;;;;;;;;;;4926498;29;20025;-83
2022/08/17 14:21:04;;;;;;;82.38;63.95;;;;;;;;;;4894954;29;20115;-83
2022/08/17 14:23:31;;;;;;;76.47;62.03;;;;;;;;;;4897877;29;20028;-83
2022/08/17 14:25:57;;;;;;;75.25;63.05;;;;;;;;;;4912172;29;20102;-83
2022/08/17 14:28:23;;;;;;;70.22;59.15;;;;;;;;;;4889244;29;20860;-83
2022/08/17 14:30:49;;;;;;;65.60;58.42;;;;;;;;;;4903106;29;20032;-83
2022/08/17 14:33:21;;;;;;;63.75;55.20;;;;;;;;;;4859296;29;20122;-84
2022/08/17 14:35:49;;;;;;;71.70;59.28;;;;;;;;;;4881232;29;20024;-83
2022/08/17 14:38:14;;;;;;;77.60;62.47;;;;;;;;;;4893284;29;20032;-83
2022/08/17 14:40:41;;;;;;;82.22;62.78;;;;;;;;;;4864067;29;20040;-84
2022/08/17 14:43:07;;;;;;;72.65;61.42;;;;;;;;;;4894821;29;20058;-84
2022/08/17 14:45:32;;;;;;;69.80;58.85;;;;;;;;;;4898220;29;20039;-85
2022/08/17 14:47:58;;;;;;;72.15;60.22;;;;;;;;;;4909751;29;20127;-85
2022/08/17 14:50:23;;;;;;;69.93;60.55;;;;;;;;;;4908930;29;20027;-85
2022/08/17 14:52:49;;;;;;;76.47;61.58;;;;;;;;;;4947876;28;20036;-85
2022/08/17 14:55:17;;;;;;;70.95;60.38;;;;;;;;;;4937632;29;20466;-83
2022/08/17 14:57:42;;;;;;;66.53;58.35;;;;;;;;;;4933522;29;20034;-84
2022/08/17 15:00:08;;;;;;;71.00;60.75;;;;;;;;;;4916574;29;20027;-84
2022/08/17 15:02:53;;;;;;;74.45;59.88;;;;;;;;;;4908226;29;20048;-83
2022/08/17 15:05:23;;;;;;;65.80;57.08;;;;;;;;;;4901407;29;20032;-84